sensor_id;sensor_type;location;lat;lon;timestamp;P1;durP1;ratioP1;P2;durP2;ratioP2
41311;SDS011;27061;41.648;24.568;2023-07-31T00:01:27;75.90;;;7.97;;
41311;SDS011;27061;41.648;24.568;2023-07-31T00:03:54;38.42;;;6.55;;
41311;SDS011;27061;41.648;24.568;2023-07-31T00:06:21;40.70;;;6.80;;
41311;SDS011;27061;41.648;24.568;2023-07-31T00:08:48;124.13;;;10.82;;
41311;SDS011;27061;41.648;24.568;2023-07-31T00:11:15;24.05;;;6.15;;
41311;SDS011;27061;41.648;24.568;2023-07-31T00:13:42;32.10;;;6.25;;
41311;SDS011;27061;41.648;24.568;2023-07-31T00:16:09;15.45;;;5.45;;
41311;SDS011;27061;41.648;24.568;2023-07-31T00:18:36;73.38;;;7.88;;
41311;SDS011;27061;41.648;24.568;2023-07-31T00:21:04;27.05;;;6.05;;
41311;SDS011;27061;41.648;24.568;2023-07-31T00:23:31;37.83;;;6.82;;
41311;SDS011;27061;41.648;24.568;2023-07-31T00:25:58;28.17;;;5.30;;
41311;SDS011;27061;41.648;24.568;2023-07-31T00:28:25;23.40;;;5.93;;
41311;SDS011;27061;41.648;24.568;2023-07-31T00:30:53;18.38;;;5.78;;
41311;SDS011;27061;41.648;24.568;2023-07-31T00:33:25;16.85;;;5.22;;
41311;SDS011;27061;41.648;24.568;2023-07-31T00:35:52;13.27;;;5.20;;
41311;SDS011;27061;41.648;24.568;2023-07-31T00:38:19;15.55;;;5.55;;
41311;SDS011;27061;41.648;24.568;2023-07-31T00:40:46;19.73;;;5.90;;
41311;SDS011;27061;41.648;24.568;2023-07-31T00:43:13;15.65;;;5.32;;
41311;SDS011;27061;41.648;24.568;2023-07-31T00:45:40;17.65;;;6.20;;
41311;SDS011;27061;41.648;24.568;2023-07-31T00:48:07;11.32;;;5.10;;
41311;SDS011;27061;41.648;24.568;2023-07-31T00:50:35;26.15;;;6.32;;
41311;SDS011;27061;41.648;24.568;2023-07-31T00:53:04;13.20;;;5.28;;
41311;SDS011;27061;41.648;24.568;2023-07-31T00:55:32;16.27;;;5.10;;
41311;SDS011;27061;41.648;24.568;2023-07-31T00:57:59;26.90;;;5.75;;
41311;SDS011;27061;41.648;24.568;2023-07-31T01:00:26;20.73;;;5.82;;
41311;SDS011;27061;41.648;24.568;2023-07-31T01:02:53;36.40;;;6.53;;
41311;SDS011;27061;41.648;24.568;2023-07-31T01:05:25;6.03;;;5.38;;
41311;SDS011;27061;41.648;24.568;2023-07-31T01:13:52;7.50;;;5.35;;
41311;SDS011;27061;41.648;24.568;2023-07-31T01:16:20;31.88;;;5.85;;
41311;SDS011;27061;41.648;24.568;2023-07-31T01:18:48;13.07;;;5.93;;
41311;SDS011;27061;41.648;24.568;2023-07-31T01:26:34;7.50;;;5.38;;
41311;SDS011;27061;41.648;24.568;2023-07-31T01:29:10;25.38;;;6.93;;
41311;SDS011;27061;41.648;24.568;2023-07-31T01:31:48;7.35;;;5.80;;
41311;SDS011;27061;41.648;24.568;2023-07-31T01:34:17;7.88;;;5.68;;
41311;SDS011;27061;41.648;24.568;2023-07-31T01:36:44;7.05;;;5.45;;
41311;SDS011;27061;41.648;24.568;2023-07-31T01:39:11;6.00;;;5.40;;
41311;SDS011;27061;41.648;24.568;2023-07-31T01:41:38;11.38;;;5.55;;
41311;SDS011;27061;41.648;24.568;2023-07-31T01:44:06;7.13;;;5.43;;
41311;SDS011;27061;41.648;24.568;2023-07-31T01:46:33;6.53;;;5.25;;
41311;SDS011;27061;41.648;24.568;2023-07-31T01:49:01;6.78;;;5.68;;
41311;SDS011;27061;41.648;24.568;2023-07-31T01:51:28;6.43;;;5.82;;
41311;SDS011;27061;41.648;24.568;2023-07-31T01:53:55;13.07;;;5.93;;
41311;SDS011;27061;41.648;24.568;2023-07-31T01:56:22;22.67;;;6.13;;
41311;SDS011;27061;41.648;24.568;2023-07-31T01:58:49;14.57;;;5.72;;
41311;SDS011;27061;41.648;24.568;2023-07-31T02:01:16;5.88;;;5.38;;
41311;SDS011;27061;41.648;24.568;2023-07-31T02:03:44;16.40;;;7.72;;
41311;SDS011;27061;41.648;24.568;2023-07-31T02:06:13;6.55;;;5.28;;
41311;SDS011;27061;41.648;24.568;2023-07-31T02:08:40;14.60;;;4.93;;
41311;SDS011;27061;41.648;24.568;2023-07-31T02:11:07;9.40;;;5.25;;
41311;SDS011;27061;41.648;24.568;2023-07-31T02:13:35;13.88;;;6.72;;
41311;SDS011;27061;41.648;24.568;2023-07-31T02:16:02;6.43;;;4.63;;
41311;SDS011;27061;41.648;24.568;2023-07-31T02:18:33;6.68;;;4.07;;
41311;SDS011;27061;41.648;24.568;2023-07-31T02:21:01;7.50;;;3.60;;
41311;SDS011;27061;41.648;24.568;2023-07-31T02:23:28;9.95;;;4.00;;
41311;SDS011;27061;41.648;24.568;2023-07-31T02:25:55;12.68;;;4.35;;
41311;SDS011;27061;41.648;24.568;2023-07-31T02:28:22;4.03;;;3.47;;
41311;SDS011;27061;41.648;24.568;2023-07-31T02:30:50;11.05;;;4.18;;
41311;SDS011;27061;41.648;24.568;2023-07-31T02:33:18;6.03;;;4.03;;
41311;SDS011;27061;41.648;24.568;2023-07-31T02:35:45;4.00;;;3.22;;
41311;SDS011;27061;41.648;24.568;2023-07-31T02:38:12;5.57;;;3.55;;
41311;SDS011;27061;41.648;24.568;2023-07-31T02:40:40;8.05;;;3.58;;
41311;SDS011;27061;41.648;24.568;2023-07-31T02:43:08;3.65;;;3.35;;
41311;SDS011;27061;41.648;24.568;2023-07-31T02:45:35;4.45;;;3.22;;
41311;SDS011;27061;41.648;24.568;2023-07-31T02:48:03;5.85;;;3.72;;
41311;SDS011;27061;41.648;24.568;2023-07-31T02:50:31;6.75;;;3.33;;
41311;SDS011;27061;41.648;24.568;2023-07-31T02:52:58;3.40;;;3.10;;
41311;SDS011;27061;41.648;24.568;2023-07-31T02:55:26;3.33;;;3.03;;
41311;SDS011;27061;41.648;24.568;2023-07-31T02:57:53;3.83;;;2.45;;
41311;SDS011;27061;41.648;24.568;2023-07-31T03:00:20;3.28;;;3.08;;
41311;SDS011;27061;41.648;24.568;2023-07-31T03:02:47;6.70;;;3.47;;
41311;SDS011;27061;41.648;24.568;2023-07-31T03:05:15;6.28;;;2.88;;
41311;SDS011;27061;41.648;24.568;2023-07-31T03:07:42;11.52;;;2.97;;
41311;SDS011;27061;41.648;24.568;2023-07-31T03:10:09;8.18;;;2.85;;
41311;SDS011;27061;41.648;24.568;2023-07-31T03:12:36;20.85;;;3.70;;
41311;SDS011;27061;41.648;24.568;2023-07-31T03:15:03;3.92;;;3.28;;
41311;SDS011;27061;41.648;24.568;2023-07-31T03:17:31;20.95;;;3.45;;
41311;SDS011;27061;41.648;24.568;2023-07-31T03:19:58;5.95;;;2.50;;
41311;SDS011;27061;41.648;24.568;2023-07-31T03:22:25;5.28;;;2.78;;
41311;SDS011;27061;41.648;24.568;2023-07-31T03:24:52;2.90;;;2.70;;
41311;SDS011;27061;41.648;24.568;2023-07-31T03:27:20;11.15;;;3.80;;
41311;SDS011;27061;41.648;24.568;2023-07-31T03:29:47;13.15;;;3.40;;
41311;SDS011;27061;41.648;24.568;2023-07-31T03:32:16;7.28;;;2.90;;
41311;SDS011;27061;41.648;24.568;2023-07-31T03:34:43;6.93;;;2.65;;
41311;SDS011;27061;41.648;24.568;2023-07-31T03:37:10;3.30;;;2.72;;
41311;SDS011;27061;41.648;24.568;2023-07-31T03:39:37;23.05;;;4.07;;
41311;SDS011;27061;41.648;24.568;2023-07-31T03:42:05;16.23;;;3.65;;
41311;SDS011;27061;41.648;24.568;2023-07-31T03:44:32;18.40;;;3.65;;
41311;SDS011;27061;41.648;24.568;2023-07-31T03:46:59;3.05;;;2.80;;
41311;SDS011;27061;41.648;24.568;2023-07-31T03:49:27;2.90;;;2.70;;
41311;SDS011;27061;41.648;24.568;2023-07-31T03:51:54;7.32;;;3.72;;
41311;SDS011;27061;41.648;24.568;2023-07-31T03:54:21;3.25;;;2.95;;
41311;SDS011;27061;41.648;24.568;2023-07-31T03:56:48;6.15;;;3.10;;
41311;SDS011;27061;41.648;24.568;2023-07-31T03:59:16;3.63;;;3.30;;
41311;SDS011;27061;41.648;24.568;2023-07-31T04:01:43;3.42;;;3.13;;
41311;SDS011;27061;41.648;24.568;2023-07-31T04:04:10;26.00;;;4.70;;
41311;SDS011;27061;41.648;24.568;2023-07-31T04:06:37;12.95;;;5.65;;
41311;SDS011;27061;41.648;24.568;2023-07-31T04:09:05;11.35;;;5.93;;
41311;SDS011;27061;41.648;24.568;2023-07-31T04:11:32;8.45;;;5.03;;
41311;SDS011;27061;41.648;24.568;2023-07-31T04:14:02;8.50;;;5.38;;
41311;SDS011;27061;41.648;24.568;2023-07-31T04:16:30;8.80;;;4.85;;
41311;SDS011;27061;41.648;24.568;2023-07-31T04:18:57;8.98;;;4.68;;
41311;SDS011;27061;41.648;24.568;2023-07-31T04:21:24;12.18;;;5.60;;
41311;SDS011;27061;41.648;24.568;2023-07-31T04:23:51;24.60;;;5.72;;
41311;SDS011;27061;41.648;24.568;2023-07-31T04:26:22;13.50;;;6.38;;
41311;SDS011;27061;41.648;24.568;2023-07-31T04:28:49;10.25;;;5.50;;
41311;SDS011;27061;41.648;24.568;2023-07-31T04:31:16;15.20;;;5.47;;
41311;SDS011;27061;41.648;24.568;2023-07-31T04:33:44;6.70;;;4.90;;
41311;SDS011;27061;41.648;24.568;2023-07-31T04:36:11;3.65;;;3.35;;
41311;SDS011;27061;41.648;24.568;2023-07-31T04:38:39;2.92;;;2.72;;
41311;SDS011;27061;41.648;24.568;2023-07-31T04:41:07;17.27;;;4.00;;
41311;SDS011;27061;41.648;24.568;2023-07-31T04:43:34;5.47;;;4.47;;
41311;SDS011;27061;41.648;24.568;2023-07-31T04:46:02;5.45;;;4.68;;
41311;SDS011;27061;41.648;24.568;2023-07-31T04:48:29;4.20;;;3.55;;
41311;SDS011;27061;41.648;24.568;2023-07-31T04:50:57;8.02;;;3.75;;
41311;SDS011;27061;41.648;24.568;2023-07-31T04:53:25;11.00;;;3.45;;
41311;SDS011;27061;41.648;24.568;2023-07-31T04:55:52;39.10;;;5.45;;
41311;SDS011;27061;41.648;24.568;2023-07-31T04:58:19;20.75;;;5.13;;
41311;SDS011;27061;41.648;24.568;2023-07-31T05:00:46;35.47;;;6.35;;
41311;SDS011;27061;41.648;24.568;2023-07-31T05:03:13;62.35;;;7.63;;
41311;SDS011;27061;41.648;24.568;2023-07-31T05:05:40;94.13;;;10.75;;
41311;SDS011;27061;41.648;24.568;2023-07-31T05:08:08;7.40;;;4.82;;
41311;SDS011;27061;41.648;24.568;2023-07-31T05:10:35;13.10;;;4.80;;
41311;SDS011;27061;41.648;24.568;2023-07-31T05:13:02;55.00;;;8.48;;
41311;SDS011;27061;41.648;24.568;2023-07-31T05:15:30;51.90;;;8.15;;
41311;SDS011;27061;41.648;24.568;2023-07-31T05:26:17;15.48;;;5.60;;
41311;SDS011;27061;41.648;24.568;2023-07-31T05:28:48;6.93;;;4.43;;
41311;SDS011;27061;41.648;24.568;2023-07-31T05:31:15;7.75;;;4.40;;
41311;SDS011;27061;41.648;24.568;2023-07-31T05:33:46;14.68;;;4.43;;
41311;SDS011;27061;41.648;24.568;2023-07-31T05:36:14;5.80;;;3.75;;
41311;SDS011;27061;41.648;24.568;2023-07-31T05:38:41;8.73;;;4.28;;
41311;SDS011;27061;41.648;24.568;2023-07-31T05:41:11;7.25;;;4.72;;
41311;SDS011;27061;41.648;24.568;2023-07-31T05:43:38;6.38;;;4.30;;
41311;SDS011;27061;41.648;24.568;2023-07-31T05:46:06;4.40;;;4.03;;
41311;SDS011;27061;41.648;24.568;2023-07-31T05:48:33;4.70;;;4.30;;
41311;SDS011;27061;41.648;24.568;2023-07-31T05:51:04;8.70;;;4.07;;
41311;SDS011;27061;41.648;24.568;2023-07-31T05:53:31;4.88;;;4.05;;
41311;SDS011;27061;41.648;24.568;2023-07-31T05:55:58;3.67;;;3.38;;
41311;SDS011;27061;41.648;24.568;2023-07-31T05:58:25;3.30;;;3.10;;
41311;SDS011;27061;41.648;24.568;2023-07-31T06:00:52;4.43;;;3.50;;
41311;SDS011;27061;41.648;24.568;2023-07-31T06:03:19;9.05;;;5.15;;
41311;SDS011;27061;41.648;24.568;2023-07-31T06:05:47;39.53;;;11.18;;
41311;SDS011;27061;41.648;24.568;2023-07-31T06:08:14;20.67;;;7.80;;
41311;SDS011;27061;41.648;24.568;2023-07-31T06:10:41;15.82;;;5.85;;
41311;SDS011;27061;41.648;24.568;2023-07-31T06:13:08;6.85;;;3.67;;
41311;SDS011;27061;41.648;24.568;2023-07-31T06:15:35;3.88;;;2.92;;
41311;SDS011;27061;41.648;24.568;2023-07-31T06:18:03;4.13;;;3.00;;
41311;SDS011;27061;41.648;24.568;2023-07-31T06:20:31;5.15;;;3.20;;
41311;SDS011;27061;41.648;24.568;2023-07-31T06:22:58;3.00;;;2.80;;
41311;SDS011;27061;41.648;24.568;2023-07-31T06:25:25;3.88;;;3.15;;
41311;SDS011;27061;41.648;24.568;2023-07-31T06:27:53;3.25;;;3.03;;
41311;SDS011;27061;41.648;24.568;2023-07-31T06:30:20;3.15;;;2.95;;
41311;SDS011;27061;41.648;24.568;2023-07-31T06:32:47;3.92;;;3.70;;
41311;SDS011;27061;41.648;24.568;2023-07-31T06:35:14;3.20;;;3.00;;
41311;SDS011;27061;41.648;24.568;2023-07-31T06:37:42;3.95;;;3.65;;
41311;SDS011;27061;41.648;24.568;2023-07-31T06:40:10;3.47;;;3.25;;
41311;SDS011;27061;41.648;24.568;2023-07-31T06:42:38;4.03;;;3.47;;
41311;SDS011;27061;41.648;24.568;2023-07-31T06:45:05;7.28;;;4.70;;
41311;SDS011;27061;41.648;24.568;2023-07-31T06:47:33;5.47;;;4.30;;
41311;SDS011;27061;41.648;24.568;2023-07-31T06:50:00;4.25;;;3.85;;
41311;SDS011;27061;41.648;24.568;2023-07-31T06:52:28;4.95;;;4.57;;
41311;SDS011;27061;41.648;24.568;2023-07-31T07:00:19;9.13;;;5.68;;
41311;SDS011;27061;41.648;24.568;2023-07-31T07:02:48;6.80;;;6.20;;
41311;SDS011;27061;41.648;24.568;2023-07-31T07:05:17;6.03;;;5.32;;
41311;SDS011;27061;41.648;24.568;2023-07-31T07:07:44;8.52;;;6.70;;
41311;SDS011;27061;41.648;24.568;2023-07-31T07:10:12;7.45;;;6.65;;
41311;SDS011;27061;41.648;24.568;2023-07-31T07:12:39;8.45;;;7.75;;
41311;SDS011;27061;41.648;24.568;2023-07-31T07:15:06;10.15;;;7.43;;
41311;SDS011;27061;41.648;24.568;2023-07-31T07:17:35;7.85;;;7.25;;
41311;SDS011;27061;41.648;24.568;2023-07-31T07:20:02;11.02;;;6.95;;
41311;SDS011;27061;41.648;24.568;2023-07-31T07:22:30;8.52;;;7.45;;
41311;SDS011;27061;41.648;24.568;2023-07-31T07:24:57;9.45;;;8.13;;
41311;SDS011;27061;41.648;24.568;2023-07-31T07:27:24;7.32;;;6.72;;
41311;SDS011;27061;41.648;24.568;2023-07-31T07:29:51;6.75;;;6.15;;
41311;SDS011;27061;41.648;24.568;2023-07-31T07:32:21;8.10;;;7.30;;
41311;SDS011;27061;41.648;24.568;2023-07-31T07:34:48;7.28;;;6.40;;
41311;SDS011;27061;41.648;24.568;2023-07-31T07:37:16;8.20;;;7.50;;
41311;SDS011;27061;41.648;24.568;2023-07-31T07:39:43;7.63;;;6.93;;
41311;SDS011;27061;41.648;24.568;2023-07-31T07:42:11;8.93;;;8.13;;
41311;SDS011;27061;41.648;24.568;2023-07-31T07:44:38;10.30;;;8.50;;
41311;SDS011;27061;41.648;24.568;2023-07-31T07:47:05;12.02;;;8.60;;
41311;SDS011;27061;41.648;24.568;2023-07-31T07:49:33;10.38;;;7.70;;
41311;SDS011;27061;41.648;24.568;2023-07-31T07:52:02;9.82;;;8.73;;
41311;SDS011;27061;41.648;24.568;2023-07-31T07:54:30;10.85;;;8.00;;
41311;SDS011;27061;41.648;24.568;2023-07-31T07:56:58;8.13;;;7.43;;
41311;SDS011;27061;41.648;24.568;2023-07-31T07:59:25;9.98;;;8.00;;
41311;SDS011;27061;41.648;24.568;2023-07-31T08:01:53;9.77;;;8.73;;
41311;SDS011;27061;41.648;24.568;2023-07-31T08:04:20;8.60;;;7.75;;
41311;SDS011;27061;41.648;24.568;2023-07-31T08:06:47;8.13;;;7.32;;
41311;SDS011;27061;41.648;24.568;2023-07-31T08:09:14;7.72;;;7.00;;
41311;SDS011;27061;41.648;24.568;2023-07-31T08:11:45;7.75;;;6.75;;
41311;SDS011;27061;41.648;24.568;2023-07-31T08:14:13;8.57;;;7.88;;
41311;SDS011;27061;41.648;24.568;2023-07-31T08:16:40;9.88;;;8.73;;
41311;SDS011;27061;41.648;24.568;2023-07-31T08:19:08;21.92;;;9.40;;
41311;SDS011;27061;41.648;24.568;2023-07-31T08:21:35;8.50;;;7.70;;
41311;SDS011;27061;41.648;24.568;2023-07-31T08:24:02;7.97;;;7.28;;
41311;SDS011;27061;41.648;24.568;2023-07-31T08:26:29;9.73;;;8.80;;
41311;SDS011;27061;41.648;24.568;2023-07-31T08:28:56;12.63;;;9.27;;
41311;SDS011;27061;41.648;24.568;2023-07-31T08:31:24;9.48;;;8.55;;
41311;SDS011;27061;41.648;24.568;2023-07-31T08:33:51;9.60;;;8.73;;
41311;SDS011;27061;41.648;24.568;2023-07-31T08:36:18;9.48;;;8.55;;
41311;SDS011;27061;41.648;24.568;2023-07-31T08:38:45;9.90;;;8.98;;
41311;SDS011;27061;41.648;24.568;2023-07-31T08:41:13;9.32;;;8.43;;
41311;SDS011;27061;41.648;24.568;2023-07-31T08:43:40;9.20;;;8.30;;
41311;SDS011;27061;41.648;24.568;2023-07-31T08:46:08;8.75;;;7.93;;
41311;SDS011;27061;41.648;24.568;2023-07-31T08:48:36;19.02;;;8.52;;
41311;SDS011;27061;41.648;24.568;2023-07-31T08:51:05;9.38;;;8.55;;
41311;SDS011;27061;41.648;24.568;2023-07-31T08:53:32;9.73;;;8.75;;
41311;SDS011;27061;41.648;24.568;2023-07-31T08:56:00;10.18;;;9.23;;
41311;SDS011;27061;41.648;24.568;2023-07-31T08:58:28;12.30;;;8.80;;
41311;SDS011;27061;41.648;24.568;2023-07-31T09:00:59;9.60;;;8.63;;
41311;SDS011;27061;41.648;24.568;2023-07-31T09:03:31;8.50;;;7.70;;
41311;SDS011;27061;41.648;24.568;2023-07-31T09:06:01;7.97;;;7.05;;
41311;SDS011;27061;41.648;24.568;2023-07-31T09:08:31;9.45;;;8.55;;
41311;SDS011;27061;41.648;24.568;2023-07-31T09:11:02;9.32;;;8.43;;
41311;SDS011;27061;41.648;24.568;2023-07-31T09:13:32;15.77;;;9.15;;
41311;SDS011;27061;41.648;24.568;2023-07-31T09:16:00;7.63;;;6.95;;
41311;SDS011;27061;41.648;24.568;2023-07-31T09:18:27;8.98;;;8.02;;
41311;SDS011;27061;41.648;24.568;2023-07-31T09:21:04;39.13;;;9.20;;
41311;SDS011;27061;41.648;24.568;2023-07-31T09:23:44;11.73;;;8.07;;
41311;SDS011;27061;41.648;24.568;2023-07-31T09:26:33;8.73;;;6.97;;
41311;SDS011;27061;41.648;24.568;2023-07-31T09:29:05;8.00;;;7.35;;
41311;SDS011;27061;41.648;24.568;2023-07-31T09:31:44;8.10;;;7.40;;
41311;SDS011;27061;41.648;24.568;2023-07-31T09:34:12;10.15;;;9.10;;
41311;SDS011;27061;41.648;24.568;2023-07-31T09:36:44;10.68;;;9.38;;
41311;SDS011;27061;41.648;24.568;2023-07-31T09:39:16;14.77;;;9.98;;
41311;SDS011;27061;41.648;24.568;2023-07-31T09:41:45;9.88;;;8.95;;
41311;SDS011;27061;41.648;24.568;2023-07-31T09:44:36;12.35;;;9.07;;
41311;SDS011;27061;41.648;24.568;2023-07-31T09:47:04;9.90;;;9.00;;
41311;SDS011;27061;41.648;24.568;2023-07-31T09:49:32;10.93;;;9.07;;
41311;SDS011;27061;41.648;24.568;2023-07-31T09:51:59;10.40;;;9.40;;
41311;SDS011;27061;41.648;24.568;2023-07-31T09:54:26;10.77;;;9.68;;
41311;SDS011;27061;41.648;24.568;2023-07-31T09:56:53;26.73;;;10.38;;
41311;SDS011;27061;41.648;24.568;2023-07-31T09:59:21;9.35;;;8.48;;
41311;SDS011;27061;41.648;24.568;2023-07-31T10:01:50;11.90;;;10.35;;
41311;SDS011;27061;41.648;24.568;2023-07-31T10:04:19;10.40;;;9.30;;
41311;SDS011;27061;41.648;24.568;2023-07-31T10:06:52;10.20;;;9.23;;
41311;SDS011;27061;41.648;24.568;2023-07-31T10:09:20;14.38;;;10.50;;
41311;SDS011;27061;41.648;24.568;2023-07-31T10:11:52;19.45;;;10.18;;
41311;SDS011;27061;41.648;24.568;2023-07-31T10:14:26;13.15;;;10.20;;
41311;SDS011;27061;41.648;24.568;2023-07-31T10:16:56;11.18;;;10.00;;
41311;SDS011;27061;41.648;24.568;2023-07-31T10:19:24;64.95;;;11.75;;
41311;SDS011;27061;41.648;24.568;2023-07-31T10:21:53;10.57;;;9.52;;
41311;SDS011;27061;41.648;24.568;2023-07-31T10:24:23;12.38;;;9.50;;
41311;SDS011;27061;41.648;24.568;2023-07-31T10:26:51;13.13;;;9.32;;
41311;SDS011;27061;41.648;24.568;2023-07-31T10:29:20;12.10;;;8.27;;
41311;SDS011;27061;41.648;24.568;2023-07-31T10:31:50;17.85;;;10.10;;
41311;SDS011;27061;41.648;24.568;2023-07-31T10:34:21;13.18;;;9.25;;
41311;SDS011;27061;41.648;24.568;2023-07-31T10:36:48;15.10;;;9.93;;
41311;SDS011;27061;41.648;24.568;2023-07-31T10:42:11;10.40;;;9.10;;
41311;SDS011;27061;41.648;24.568;2023-07-31T10:44:44;10.10;;;9.10;;
41311;SDS011;27061;41.648;24.568;2023-07-31T10:47:17;9.88;;;8.70;;
41311;SDS011;27061;41.648;24.568;2023-07-31T10:49:45;21.92;;;9.75;;
41311;SDS011;27061;41.648;24.568;2023-07-31T10:52:13;12.60;;;9.02;;
41311;SDS011;27061;41.648;24.568;2023-07-31T10:54:40;16.33;;;9.90;;
41311;SDS011;27061;41.648;24.568;2023-07-31T10:57:20;12.30;;;9.27;;
41311;SDS011;27061;41.648;24.568;2023-07-31T10:59:49;17.25;;;9.70;;
41311;SDS011;27061;41.648;24.568;2023-07-31T11:02:23;11.57;;;9.30;;
41311;SDS011;27061;41.648;24.568;2023-07-31T11:05:15;19.27;;;9.85;;
41311;SDS011;27061;41.648;24.568;2023-07-31T11:07:49;11.43;;;9.38;;
41311;SDS011;27061;41.648;24.568;2023-07-31T11:10:17;10.50;;;9.40;;
41311;SDS011;27061;41.648;24.568;2023-07-31T11:12:46;10.50;;;8.60;;
41311;SDS011;27061;41.648;24.568;2023-07-31T11:15:14;16.30;;;9.32;;
41311;SDS011;27061;41.648;24.568;2023-07-31T11:17:41;8.63;;;7.82;;
41311;SDS011;27061;41.648;24.568;2023-07-31T11:20:08;8.85;;;8.05;;
41311;SDS011;27061;41.648;24.568;2023-07-31T11:22:36;8.60;;;7.90;;
41311;SDS011;27061;41.648;24.568;2023-07-31T11:25:04;16.75;;;8.80;;
41311;SDS011;27061;41.648;24.568;2023-07-31T11:27:38;9.10;;;8.30;;
41311;SDS011;27061;41.648;24.568;2023-07-31T11:32:35;7.28;;;6.60;;
41311;SDS011;27061;41.648;24.568;2023-07-31T11:35:03;9.13;;;7.45;;
41311;SDS011;27061;41.648;24.568;2023-07-31T11:37:42;10.50;;;8.63;;
41311;SDS011;27061;41.648;24.568;2023-07-31T11:40:10;11.63;;;8.23;;
41311;SDS011;27061;41.648;24.568;2023-07-31T11:42:38;14.65;;;8.93;;
41311;SDS011;27061;41.648;24.568;2023-07-31T11:45:05;8.63;;;7.80;;
41311;SDS011;27061;41.648;24.568;2023-07-31T11:47:34;9.55;;;8.20;;
41311;SDS011;27061;41.648;24.568;2023-07-31T11:50:02;8.35;;;7.57;;
41311;SDS011;27061;41.648;24.568;2023-07-31T11:52:32;9.48;;;8.45;;
41311;SDS011;27061;41.648;24.568;2023-07-31T11:55:04;13.48;;;7.93;;
41311;SDS011;27061;41.648;24.568;2023-07-31T11:57:39;8.15;;;7.35;;
41311;SDS011;27061;41.648;24.568;2023-07-31T12:00:09;8.15;;;7.45;;
41311;SDS011;27061;41.648;24.568;2023-07-31T12:02:40;8.85;;;7.95;;
41311;SDS011;27061;41.648;24.568;2023-07-31T12:05:11;12.90;;;8.57;;
41311;SDS011;27061;41.648;24.568;2023-07-31T12:07:43;9.07;;;8.27;;
41311;SDS011;27061;41.648;24.568;2023-07-31T12:10:11;10.43;;;9.25;;
41311;SDS011;27061;41.648;24.568;2023-07-31T12:13:08;19.23;;;9.40;;
41311;SDS011;27061;41.648;24.568;2023-07-31T12:18:12;11.38;;;8.48;;
41311;SDS011;27061;41.648;24.568;2023-07-31T12:20:54;15.23;;;8.75;;
41311;SDS011;27061;41.648;24.568;2023-07-31T12:23:27;13.38;;;8.95;;
41311;SDS011;27061;41.648;24.568;2023-07-31T12:26:03;18.60;;;9.05;;
41311;SDS011;27061;41.648;24.568;2023-07-31T12:28:41;9.30;;;8.40;;
41311;SDS011;27061;41.648;24.568;2023-07-31T12:31:09;11.23;;;8.15;;
41311;SDS011;27061;41.648;24.568;2023-07-31T12:33:39;10.10;;;9.10;;
41311;SDS011;27061;41.648;24.568;2023-07-31T12:36:08;8.05;;;7.25;;
41311;SDS011;27061;41.648;24.568;2023-07-31T12:38:37;8.98;;;7.72;;
41311;SDS011;27061;41.648;24.568;2023-07-31T12:41:04;9.65;;;7.82;;
41311;SDS011;27061;41.648;24.568;2023-07-31T12:43:34;9.43;;;8.48;;
41311;SDS011;27061;41.648;24.568;2023-07-31T12:46:02;8.40;;;7.70;;
41311;SDS011;27061;41.648;24.568;2023-07-31T12:48:30;8.85;;;7.97;;
41311;SDS011;27061;41.648;24.568;2023-07-31T12:50:58;8.43;;;7.63;;
41311;SDS011;27061;41.648;24.568;2023-07-31T12:53:25;8.32;;;7.40;;
41311;SDS011;27061;41.648;24.568;2023-07-31T12:55:52;10.50;;;6.85;;
41311;SDS011;27061;41.648;24.568;2023-07-31T12:58:20;7.95;;;7.22;;
41311;SDS011;27061;41.648;24.568;2023-07-31T13:00:47;6.70;;;6.18;;
41311;SDS011;27061;41.648;24.568;2023-07-31T13:03:14;7.22;;;6.60;;
41311;SDS011;27061;41.648;24.568;2023-07-31T13:05:41;7.28;;;6.55;;
41311;SDS011;27061;41.648;24.568;2023-07-31T13:08:09;6.80;;;6.20;;
41311;SDS011;27061;41.648;24.568;2023-07-31T13:10:36;7.30;;;6.60;;
41311;SDS011;27061;41.648;24.568;2023-07-31T13:13:03;8.60;;;7.00;;
41311;SDS011;27061;41.648;24.568;2023-07-31T13:15:30;7.20;;;6.25;;
41311;SDS011;27061;41.648;24.568;2023-07-31T13:17:57;20.50;;;8.00;;
41311;SDS011;27061;41.648;24.568;2023-07-31T13:20:25;8.05;;;7.25;;
41311;SDS011;27061;41.648;24.568;2023-07-31T13:22:52;7.22;;;6.63;;
41311;SDS011;27061;41.648;24.568;2023-07-31T13:25:19;7.70;;;6.55;;
41311;SDS011;27061;41.648;24.568;2023-07-31T13:27:46;7.07;;;6.47;;
41311;SDS011;27061;41.648;24.568;2023-07-31T13:30:13;6.93;;;6.28;;
41311;SDS011;27061;41.648;24.568;2023-07-31T13:32:41;6.65;;;5.90;;
41311;SDS011;27061;41.648;24.568;2023-07-31T13:35:08;6.25;;;5.65;;
41311;SDS011;27061;41.648;24.568;2023-07-31T13:37:37;5.50;;;5.10;;
41311;SDS011;27061;41.648;24.568;2023-07-31T13:40:05;5.45;;;4.97;;
41311;SDS011;27061;41.648;24.568;2023-07-31T13:42:32;5.78;;;5.28;;
41311;SDS011;27061;41.648;24.568;2023-07-31T13:44:59;5.47;;;4.97;;
41311;SDS011;27061;41.648;24.568;2023-07-31T13:47:30;5.13;;;4.57;;
41311;SDS011;27061;41.648;24.568;2023-07-31T13:49:58;8.75;;;4.75;;
41311;SDS011;27061;41.648;24.568;2023-07-31T13:52:26;8.80;;;4.97;;
41311;SDS011;27061;41.648;24.568;2023-07-31T13:54:53;8.23;;;5.05;;
41311;SDS011;27061;41.648;24.568;2023-07-31T13:57:20;7.45;;;5.85;;
41311;SDS011;27061;41.648;24.568;2023-07-31T13:59:47;5.15;;;4.68;;
41311;SDS011;27061;41.648;24.568;2023-07-31T14:02:14;9.77;;;4.53;;
41311;SDS011;27061;41.648;24.568;2023-07-31T14:04:42;8.35;;;4.13;;
41311;SDS011;27061;41.648;24.568;2023-07-31T14:07:09;4.97;;;4.57;;
41311;SDS011;27061;41.648;24.568;2023-07-31T14:09:36;4.50;;;4.20;;
41311;SDS011;27061;41.648;24.568;2023-07-31T14:12:04;4.50;;;4.20;;
41311;SDS011;27061;41.648;24.568;2023-07-31T14:14:31;6.70;;;4.25;;
41311;SDS011;27061;41.648;24.568;2023-07-31T14:17:01;5.03;;;4.18;;
41311;SDS011;27061;41.648;24.568;2023-07-31T14:19:29;4.70;;;4.40;;
41311;SDS011;27061;41.648;24.568;2023-07-31T14:21:58;6.10;;;3.65;;
41311;SDS011;27061;41.648;24.568;2023-07-31T14:24:36;5.60;;;3.65;;
41311;SDS011;27061;41.648;24.568;2023-07-31T14:27:04;4.15;;;3.85;;
41311;SDS011;27061;41.648;24.568;2023-07-31T14:29:32;4.03;;;3.72;;
41311;SDS011;27061;41.648;24.568;2023-07-31T14:31:59;4.53;;;4.13;;
41311;SDS011;27061;41.648;24.568;2023-07-31T14:34:27;3.60;;;3.30;;
41311;SDS011;27061;41.648;24.568;2023-07-31T14:36:54;4.68;;;3.97;;
41311;SDS011;27061;41.648;24.568;2023-07-31T14:39:21;4.80;;;4.18;;
41311;SDS011;27061;41.648;24.568;2023-07-31T14:41:48;4.63;;;4.28;;
41311;SDS011;27061;41.648;24.568;2023-07-31T14:44:18;3.78;;;3.50;;
41311;SDS011;27061;41.648;24.568;2023-07-31T14:46:45;3.80;;;3.40;;
41311;SDS011;27061;41.648;24.568;2023-07-31T14:49:13;8.38;;;3.97;;
41311;SDS011;27061;41.648;24.568;2023-07-31T14:51:40;5.38;;;4.45;;
41311;SDS011;27061;41.648;24.568;2023-07-31T14:54:07;3.97;;;3.67;;
41311;SDS011;27061;41.648;24.568;2023-07-31T14:56:35;3.17;;;3.03;;
41311;SDS011;27061;41.648;24.568;2023-07-31T14:59:02;4.07;;;3.53;;
41311;SDS011;27061;41.648;24.568;2023-07-31T15:01:29;4.07;;;3.63;;
41311;SDS011;27061;41.648;24.568;2023-07-31T15:03:57;3.95;;;3.65;;
41311;SDS011;27061;41.648;24.568;2023-07-31T15:06:24;3.88;;;3.55;;
41311;SDS011;27061;41.648;24.568;2023-07-31T15:08:51;5.10;;;4.03;;